createdAt,value
2023-05-21T00:02:45.939Z,47.50
2023-05-21T00:05:32.784Z,22.23
2023-05-21T00:08:19.166Z,37.73
2023-05-21T00:11:06.152Z,25.37
2023-05-21T00:13:52.680Z,31.70
2023-05-21T00:16:40.480Z,21.33
2023-05-21T00:19:27.229Z,45.00
2023-05-21T00:22:14.334Z,26.50
2023-05-21T00:25:00.722Z,24.50
2023-05-21T00:27:47.405Z,20.20
2023-05-21T00:30:33.869Z,16.23
2023-05-21T00:33:22.134Z,16.77
2023-05-21T00:36:08.819Z,34.83
2023-05-21T00:38:55.169Z,39.17
2023-05-21T00:41:43.238Z,31.13
2023-05-21T00:44:34.178Z,26.13
2023-05-21T00:47:21.677Z,30.30
2023-05-21T00:50:10.206Z,23.50
2023-05-21T00:52:57.717Z,33.33
2023-05-21T00:55:44.042Z,28.13
2023-05-21T00:58:31.282Z,21.47
2023-05-21T01:01:18.434Z,34.17
2023-05-21T01:04:04.832Z,21.43
2023-05-21T01:06:53.674Z,27.30
2023-05-21T01:09:40.661Z,22.43
2023-05-21T01:12:26.946Z,17.80
2023-05-21T01:15:13.492Z,21.23
2023-05-21T01:18:00.187Z,19.57
2023-05-21T01:20:48.229Z,34.40
2023-05-21T01:23:35.954Z,29.47
2023-05-21T01:26:22.296Z,35.50
2023-05-21T01:29:12.963Z,21.93
2023-05-21T01:32:05.248Z,24.53
2023-05-21T01:34:54.804Z,24.00
2023-05-21T01:37:43.806Z,27.77
2023-05-21T01:40:38.300Z,27.47
2023-05-21T01:43:25.077Z,27.67
2023-05-21T01:46:12.301Z,26.93
2023-05-21T01:48:59.186Z,23.97
2023-05-21T01:51:45.569Z,23.57
2023-05-21T01:54:32.424Z,22.77
2023-05-21T01:57:20.209Z,23.40
2023-05-21T02:00:09.172Z,21.07
2023-05-21T02:02:55.537Z,24.70
2023-05-21T02:05:41.882Z,21.43
2023-05-21T02:08:28.483Z,25.40
2023-05-21T02:11:14.882Z,23.90
2023-05-21T02:14:03.918Z,27.77
2023-05-21T02:16:50.767Z,25.67
2023-05-21T02:19:37.438Z,25.00
2023-05-21T02:22:23.882Z,20.67
2023-05-21T02:25:11.053Z,21.37
2023-05-21T02:27:57.652Z,23.03
2023-05-21T02:30:45.513Z,22.97
2023-05-21T02:33:32.591Z,24.50
2023-05-21T02:36:19.263Z,24.73
2023-05-21T02:39:05.744Z,24.93
2023-05-21T02:41:52.489Z,29.03
2023-05-21T02:44:38.935Z,25.40
2023-05-21T02:47:27.063Z,26.90
2023-05-21T02:50:15.055Z,23.20
2023-05-21T02:53:01.435Z,21.07
2023-05-21T02:55:47.798Z,32.47
2023-05-21T02:58:34.295Z,32.43
2023-05-21T03:01:20.943Z,28.50
2023-05-21T03:04:08.468Z,23.43
2023-05-21T03:06:55.636Z,22.83
2023-05-21T03:09:42.938Z,32.40
2023-05-21T03:12:29.373Z,31.43
2023-05-21T03:15:15.933Z,29.00
2023-05-21T03:18:03.023Z,21.53
2023-05-21T03:20:50.814Z,23.53
2023-05-21T03:23:37.113Z,29.60
2023-05-21T03:26:24.042Z,28.30
2023-05-21T03:29:10.304Z,25.73
2023-05-21T03:31:56.780Z,28.77
2023-05-21T03:34:43.437Z,23.50
2023-05-21T03:37:31.509Z,28.77
2023-05-21T03:40:18.386Z,26.40
2023-05-21T03:43:04.883Z,28.03
2023-05-21T03:45:51.448Z,25.67
2023-05-21T03:48:38.081Z,25.50
2023-05-21T03:51:24.799Z,33.40
2023-05-21T03:54:12.701Z,28.90
2023-05-21T03:56:59.941Z,29.20
2023-05-21T03:59:46.391Z,28.57
2023-05-21T04:02:33.235Z,25.83
2023-05-21T04:05:19.547Z,26.73
2023-05-21T04:08:06.944Z,27.50
2023-05-21T04:10:54.908Z,24.87
2023-05-21T04:13:41.293Z,22.50
2023-05-21T04:16:27.646Z,21.40
2023-05-21T04:19:14.160Z,26.50
2023-05-21T04:22:01.090Z,30.60
2023-05-21T04:24:48.901Z,23.00
2023-05-21T04:27:36.972Z,20.93
2023-05-21T04:30:24.195Z,20.47
2023-05-21T04:33:10.757Z,24.23
2023-05-21T04:35:57.963Z,37.93
2023-05-21T04:38:44.763Z,31.03
2023-05-21T04:41:31.593Z,22.60
2023-05-21T04:44:19.535Z,25.73
2023-05-21T04:47:06.158Z,23.70
2023-05-21T04:49:53.588Z,28.43
2023-05-21T04:52:40.760Z,25.10
2023-05-21T04:55:27.618Z,24.90
2023-05-21T04:58:14.789Z,23.77
2023-05-21T05:01:05.135Z,22.17
2023-05-21T05:03:51.823Z,22.20
2023-05-21T05:06:38.165Z,23.07
2023-05-21T05:09:25.323Z,21.90
2023-05-21T05:12:11.870Z,25.63
2023-05-21T05:14:58.242Z,22.23
2023-05-21T05:17:48.352Z,25.47
2023-05-21T05:20:34.561Z,28.20
2023-05-21T05:23:20.873Z,24.20
2023-05-21T05:26:07.522Z,27.30
2023-05-21T05:28:53.858Z,23.90
2023-05-21T05:31:40.227Z,22.23
2023-05-21T05:34:28.072Z,21.60
2023-05-21T05:37:14.350Z,21.47
2023-05-21T05:40:00.768Z,24.37
2023-05-21T05:42:49.498Z,25.13
2023-05-21T05:45:36.058Z,27.33
2023-05-21T05:48:22.762Z,27.03
2023-05-21T05:51:12.092Z,25.43
2023-05-21T05:53:58.410Z,21.20
2023-05-21T05:56:44.744Z,26.57
2023-05-21T05:59:31.300Z,21.87
2023-05-21T06:02:17.763Z,30.90
2023-05-21T06:05:04.469Z,24.00
2023-05-21T06:07:52.504Z,23.70
2023-05-21T06:10:38.999Z,25.00
2023-05-21T06:13:25.609Z,20.53
2023-05-21T06:16:13.255Z,22.83
2023-05-21T06:18:59.941Z,24.10
2023-05-21T06:21:46.283Z,19.67
2023-05-21T06:24:34.198Z,17.97
2023-05-21T06:27:20.740Z,18.70
2023-05-21T06:30:08.631Z,22.90
2023-05-21T06:32:55.160Z,22.07
2023-05-21T06:35:41.924Z,22.13
2023-05-21T06:38:28.165Z,18.23
2023-05-21T06:41:17.083Z,21.03
2023-05-21T06:44:03.401Z,15.60
2023-05-21T06:46:50.184Z,26.23
2023-05-21T06:49:36.510Z,15.17
2023-05-21T06:52:23.216Z,15.10
2023-05-21T06:55:10.221Z,15.83
2023-05-21T06:57:59.008Z,14.40
2023-05-21T07:00:45.702Z,14.83
2023-05-21T07:03:32.631Z,17.07
2023-05-21T07:06:19.429Z,13.17
2023-05-21T07:09:06.133Z,13.07
2023-05-21T07:11:53.399Z,12.23
2023-05-21T07:14:41.048Z,13.10
2023-05-21T07:17:27.429Z,14.13
2023-05-21T07:20:14.842Z,13.70
2023-05-21T07:23:01.668Z,11.97
2023-05-21T07:25:48.199Z,12.67
2023-05-21T07:28:34.802Z,10.00
2023-05-21T07:31:22.678Z,11.13
2023-05-21T07:34:09.180Z,12.73
2023-05-21T07:36:55.969Z,10.03
2023-05-21T07:39:42.342Z,9.90
2023-05-21T07:42:28.985Z,10.60
2023-05-21T07:45:15.327Z,9.23
2023-05-21T07:48:03.193Z,8.63
2023-05-21T07:50:52.737Z,11.00
2023-05-21T07:53:39.096Z,10.90
2023-05-21T07:56:26.754Z,9.10
2023-05-21T07:59:15.400Z,7.60
2023-05-21T08:02:01.771Z,10.00
2023-05-21T08:04:49.861Z,9.37
2023-05-21T08:07:36.556Z,8.00
2023-05-21T08:10:23.065Z,7.20
2023-05-21T08:13:09.466Z,9.37
2023-05-21T08:15:55.886Z,7.67
2023-05-21T08:18:42.539Z,6.73
2023-05-21T08:21:30.834Z,8.47
2023-05-21T08:24:17.563Z,8.00
2023-05-21T08:27:03.947Z,7.83
2023-05-21T08:29:50.449Z,6.60
2023-05-21T08:32:37.452Z,6.30
2023-05-21T08:35:24.164Z,6.67
2023-05-21T08:38:11.850Z,7.50
2023-05-21T08:40:59.509Z,9.67
2023-05-21T08:43:50.188Z,5.73
2023-05-21T08:46:37.431Z,5.73
2023-05-21T08:49:27.995Z,7.90
2023-05-21T08:52:14.490Z,6.20
2023-05-21T08:55:03.728Z,5.83
2023-05-21T08:57:50.615Z,6.10
2023-05-21T09:00:37.350Z,6.43
2023-05-21T09:03:25.558Z,7.03
2023-05-21T09:06:14.195Z,8.13
2023-05-21T09:09:04.933Z,4.40
2023-05-21T09:11:52.543Z,6.13
2023-05-21T09:14:39.371Z,6.07
2023-05-21T09:17:26.067Z,6.33
2023-05-21T09:20:14.939Z,5.37
2023-05-21T09:23:04.548Z,5.93
2023-05-21T09:25:52.138Z,8.83
2023-05-21T09:28:39.806Z,4.77
2023-05-21T09:31:27.135Z,6.80
2023-05-21T09:34:14.673Z,9.13
2023-05-21T09:37:01.618Z,5.27
2023-05-21T09:39:48.719Z,4.90
2023-05-21T09:42:35.185Z,6.20
2023-05-21T09:45:23.592Z,6.27
2023-05-21T09:48:10.278Z,7.67
2023-05-21T09:51:07.989Z,8.20
2023-05-21T09:53:55.743Z,9.83
2023-05-21T09:56:42.540Z,5.73
2023-05-21T09:59:36.792Z,7.10
2023-05-21T10:02:26.699Z,7.37
2023-05-21T10:05:13.420Z,8.30
2023-05-21T10:08:01.001Z,5.40
2023-05-21T10:10:49.413Z,7.20
2023-05-21T10:13:38.308Z,6.57
2023-05-21T10:16:25.432Z,9.13
2023-05-21T10:19:14.392Z,4.00
2023-05-21T10:22:01.742Z,5.90
2023-05-21T10:24:48.426Z,6.20
2023-05-21T10:27:35.876Z,4.67
2023-05-21T10:30:22.761Z,4.97
2023-05-21T10:33:09.438Z,6.33
2023-05-21T10:35:59.530Z,6.47
2023-05-21T10:38:46.821Z,5.77
2023-05-21T10:41:37.154Z,4.57
2023-05-21T10:44:28.431Z,5.57
2023-05-21T10:47:41.027Z,5.53
2023-05-21T10:50:48.661Z,6.30
2023-05-21T10:53:43.558Z,7.50
2023-05-21T10:56:31.980Z,5.57
2023-05-21T10:59:23.057Z,7.33
2023-05-21T11:02:10.987Z,10.17
2023-05-21T11:04:59.663Z,5.20
2023-05-21T11:07:53.850Z,8.97
2023-05-21T11:10:44.586Z,6.17
2023-05-21T11:13:45.680Z,6.63
2023-05-21T11:16:31.972Z,5.47
2023-05-21T11:19:18.660Z,5.20
2023-05-21T11:22:09.397Z,5.00
2023-05-21T11:24:56.548Z,5.77
2023-05-21T11:27:44.622Z,7.43
2023-05-21T11:30:31.089Z,6.30
2023-05-21T11:33:20.569Z,5.63
2023-05-21T11:36:12.588Z,7.03
2023-05-21T11:39:09.695Z,5.97
2023-05-21T11:41:59.789Z,7.50
2023-05-21T11:44:49.429Z,5.47
2023-05-21T11:47:36.004Z,8.63
2023-05-21T11:50:22.288Z,4.50
2023-05-21T11:53:09.132Z,7.10
2023-05-21T11:55:57.599Z,3.80
2023-05-21T11:58:44.204Z,5.33
2023-05-21T12:01:32.216Z,3.57
2023-05-21T12:04:18.970Z,5.77
2023-05-21T12:07:05.244Z,4.53
2023-05-21T12:09:52.494Z,7.17
2023-05-21T12:12:50.604Z,5.27
2023-05-21T12:15:43.348Z,5.33
2023-05-21T12:18:31.492Z,4.97
2023-05-21T12:21:17.989Z,5.43
2023-05-21T12:24:04.392Z,5.10
2023-05-21T12:26:52.197Z,6.13
2023-05-21T12:29:39.760Z,5.43
2023-05-21T12:32:28.470Z,3.93
2023-05-21T12:35:24.005Z,5.03
2023-05-21T12:38:11.439Z,6.77
2023-05-21T12:40:58.102Z,7.97
2023-05-21T12:43:44.902Z,5.23
2023-05-21T12:46:32.099Z,6.00
2023-05-21T12:49:32.227Z,6.37
2023-05-21T12:52:21.250Z,5.27
2023-05-21T12:55:09.537Z,5.83
2023-05-21T12:58:08.456Z,8.87
2023-05-21T13:00:56.646Z,9.47
2023-05-21T13:03:44.263Z,6.03
2023-05-21T13:06:31.556Z,6.03
2023-05-21T13:09:19.382Z,5.37
2023-05-21T13:12:06.334Z,5.83
2023-05-21T13:14:53.508Z,5.80
2023-05-21T13:17:39.995Z,5.73
2023-05-21T13:20:27.689Z,5.50
2023-05-21T13:23:16.148Z,6.37
2023-05-21T13:26:04.219Z,5.03
2023-05-21T13:28:50.778Z,7.23
2023-05-21T13:31:37.148Z,10.13
2023-05-21T13:34:23.600Z,8.73
2023-05-21T13:37:09.765Z,7.83
2023-05-21T13:39:56.419Z,10.70
2023-05-21T13:42:45.292Z,5.30
2023-05-21T13:45:32.097Z,6.30
2023-05-21T13:48:18.527Z,5.63
2023-05-21T13:51:04.834Z,6.63
2023-05-21T13:53:51.258Z,8.13
2023-05-21T13:56:38.014Z,7.37
2023-05-21T13:59:25.961Z,6.63
2023-05-21T14:02:12.287Z,6.00
2023-05-21T14:04:58.993Z,5.10
2023-05-21T14:07:48.291Z,5.37
2023-05-21T14:10:35.219Z,5.93
2023-05-21T14:13:22.258Z,5.03
2023-05-21T14:16:10.290Z,4.87
2023-05-21T14:18:56.622Z,3.63
2023-05-21T14:21:43.073Z,4.30
2023-05-21T14:24:29.266Z,5.47
2023-05-21T14:27:16.377Z,8.53
2023-05-21T14:30:02.682Z,3.83
2023-05-21T14:32:50.446Z,3.60
2023-05-21T14:35:37.449Z,4.33
2023-05-21T14:38:24.103Z,5.67
2023-05-21T14:41:10.546Z,4.93
2023-05-21T14:43:56.836Z,4.67
2023-05-21T14:46:43.208Z,5.47
2023-05-21T14:49:31.228Z,4.50
2023-05-21T14:52:18.003Z,4.97
2023-05-21T14:55:04.716Z,3.93
2023-05-21T14:57:51.356Z,5.10
2023-05-21T15:00:37.936Z,4.17
2023-05-21T15:03:24.702Z,2.93
2023-05-21T15:06:12.507Z,5.43
2023-05-21T15:08:59.913Z,4.37
2023-05-21T15:11:46.564Z,4.97
2023-05-21T15:14:32.982Z,3.30
2023-05-21T15:17:19.294Z,2.73
2023-05-21T15:20:06.476Z,4.37
2023-05-21T15:23:05.026Z,3.47
2023-05-21T15:26:01.535Z,3.53
2023-05-21T15:28:48.221Z,5.67
2023-05-21T15:31:34.800Z,3.53
2023-05-21T15:34:21.136Z,2.53
2023-05-21T15:37:08.341Z,3.80
2023-05-21T15:39:55.876Z,4.07
2023-05-21T15:42:42.320Z,3.03
2023-05-21T15:45:28.703Z,5.87
2023-05-21T15:48:15.230Z,5.50
2023-05-21T15:51:01.725Z,3.43
2023-05-21T15:53:48.814Z,3.13
2023-05-21T15:56:36.895Z,3.20
2023-05-21T15:59:25.152Z,4.07
2023-05-21T16:02:11.226Z,3.87
2023-05-21T16:04:58.265Z,3.30
2023-05-21T16:07:44.854Z,3.80
2023-05-21T16:10:31.236Z,2.80
2023-05-21T16:13:19.189Z,4.90
2023-05-21T16:16:05.793Z,3.67
2023-05-21T16:18:52.315Z,3.87
2023-05-21T16:21:38.881Z,4.73
2023-05-21T16:24:25.749Z,5.80
2023-05-21T16:27:14.884Z,6.00
2023-05-21T16:30:02.710Z,3.23
2023-05-21T16:32:49.294Z,5.20
2023-05-21T16:35:36.059Z,2.90
2023-05-21T16:38:23.092Z,3.60
2023-05-21T16:41:09.599Z,3.80
2023-05-21T16:43:56.309Z,3.97
2023-05-21T16:46:44.164Z,4.07
2023-05-21T16:49:30.445Z,6.93
2023-05-21T16:52:17.010Z,4.93
2023-05-21T16:55:03.688Z,4.37
2023-05-21T16:57:50.191Z,4.23
2023-05-21T17:00:37.021Z,3.43
2023-05-21T17:03:24.842Z,3.27
2023-05-21T17:06:11.220Z,3.97
2023-05-21T17:08:57.918Z,5.53
2023-05-21T17:11:44.881Z,5.10
2023-05-21T17:14:34.149Z,7.43
2023-05-21T17:17:21.229Z,3.63
2023-05-21T17:20:10.050Z,6.60
2023-05-21T17:22:56.694Z,5.27
2023-05-21T17:25:43.044Z,5.50
2023-05-21T17:28:29.823Z,2.73
2023-05-21T17:31:16.543Z,6.37
2023-05-21T17:34:03.341Z,6.40
2023-05-21T17:36:51.156Z,11.20
2023-05-21T17:39:37.542Z,7.60
2023-05-21T17:42:24.086Z,4.60
2023-05-21T17:45:11.227Z,7.50
2023-05-21T17:47:59.990Z,8.10
2023-05-21T17:50:46.922Z,3.67
2023-05-21T17:53:34.847Z,4.93
2023-05-21T17:56:21.647Z,3.93
2023-05-21T17:59:08.331Z,4.23
2023-05-21T18:01:54.811Z,4.67
2023-05-21T18:04:41.574Z,3.23
2023-05-21T18:07:28.758Z,3.17
2023-05-21T18:10:16.453Z,7.70
2023-05-21T18:13:02.930Z,5.93
2023-05-21T18:15:49.319Z,4.73
2023-05-21T18:18:35.791Z,3.43
2023-05-21T18:21:22.259Z,26.57
2023-05-21T18:24:09.147Z,22.13
2023-05-21T18:26:57.344Z,9.53
2023-05-21T18:29:43.874Z,6.27
2023-05-21T18:32:30.293Z,5.03
2023-05-21T18:35:17.104Z,12.43
2023-05-21T18:38:04.169Z,17.10
2023-05-21T18:40:50.877Z,6.47
2023-05-21T18:43:38.762Z,6.83
2023-05-21T18:46:25.334Z,4.37
2023-05-21T18:49:11.975Z,5.20
2023-05-21T18:51:58.245Z,8.57
2023-05-21T18:54:47.152Z,4.53
2023-05-21T18:57:34.831Z,11.83
2023-05-21T19:00:22.576Z,6.97
2023-05-21T19:03:09.045Z,6.53
2023-05-21T19:05:55.851Z,6.07
2023-05-21T19:08:42.935Z,10.23
2023-05-21T19:11:34.354Z,5.10
2023-05-21T19:14:21.432Z,6.50
2023-05-21T19:17:09.364Z,8.87
2023-05-21T19:19:56.776Z,6.83
2023-05-21T19:22:43.144Z,5.00
2023-05-21T19:25:31.512Z,7.97
2023-05-21T19:28:19.013Z,6.37
2023-05-21T19:31:05.501Z,8.27
2023-05-21T19:33:53.594Z,5.73
2023-05-21T19:36:51.979Z,9.57
2023-05-21T19:39:39.827Z,4.93
2023-05-21T19:42:27.044Z,5.60
2023-05-21T19:45:13.494Z,7.40
2023-05-21T19:48:00.276Z,4.57
2023-05-21T19:50:48.235Z,5.07
2023-05-21T19:53:35.000Z,8.53
2023-05-21T19:56:22.042Z,5.73
2023-05-21T19:59:08.351Z,5.73
2023-05-21T20:01:54.707Z,4.93
2023-05-21T20:04:40.901Z,5.07
2023-05-21T20:07:28.768Z,5.60
2023-05-21T20:10:15.347Z,5.17
2023-05-21T20:13:02.139Z,4.67
2023-05-21T20:15:49.925Z,6.00
2023-05-21T20:18:36.987Z,5.90
2023-05-21T20:21:24.085Z,4.10
2023-05-21T20:24:11.817Z,4.60
2023-05-21T20:26:58.207Z,7.73
2023-05-21T20:29:45.381Z,4.47
2023-05-21T20:32:31.818Z,5.33
2023-05-21T20:35:18.253Z,4.97
2023-05-21T20:38:05.762Z,4.77
2023-05-21T20:40:53.651Z,6.03
2023-05-21T20:43:39.703Z,9.27
2023-05-21T20:46:26.082Z,5.33
2023-05-21T20:49:12.574Z,7.43
2023-05-21T20:51:59.038Z,11.37
2023-05-21T20:54:46.616Z,9.50
2023-05-21T20:57:34.487Z,9.63
2023-05-21T21:00:21.243Z,6.57
2023-05-21T21:03:10.367Z,7.13
2023-05-21T21:05:58.083Z,7.97
2023-05-21T21:08:46.291Z,6.00
2023-05-21T21:11:32.572Z,7.83
2023-05-21T21:14:20.369Z,6.57
2023-05-21T21:17:06.982Z,10.67
2023-05-21T21:19:53.446Z,8.20
2023-05-21T21:22:40.255Z,8.00
2023-05-21T21:25:26.982Z,11.17
2023-05-21T21:28:13.343Z,7.50
2023-05-21T21:31:01.284Z,8.60
2023-05-21T21:33:47.651Z,10.23
2023-05-21T21:36:33.858Z,9.37
2023-05-21T21:39:20.320Z,8.77
2023-05-21T21:42:06.875Z,6.30
2023-05-21T21:44:53.476Z,7.03
2023-05-21T21:47:41.269Z,8.67
2023-05-21T21:50:27.983Z,6.63
2023-05-21T21:53:14.323Z,5.57
2023-05-21T21:56:00.735Z,7.20
2023-05-21T21:58:47.509Z,8.07
2023-05-21T22:01:34.094Z,6.03
2023-05-21T22:04:22.310Z,6.47
2023-05-21T22:07:10.733Z,6.03
2023-05-21T22:09:57.169Z,13.20
2023-05-21T22:12:43.817Z,8.23
2023-05-21T22:15:32.132Z,8.17
2023-05-21T22:18:28.302Z,7.00
2023-05-21T22:21:21.408Z,6.30
2023-05-21T22:24:12.779Z,6.73
2023-05-21T22:27:04.385Z,7.47
2023-05-21T22:29:51.222Z,6.60
2023-05-21T22:32:37.565Z,9.50
2023-05-21T22:35:24.059Z,6.47
2023-05-21T22:38:12.193Z,6.80
2023-05-21T22:40:58.640Z,6.50
2023-05-21T22:43:45.249Z,8.80
2023-05-21T22:46:32.103Z,6.47
2023-05-21T22:49:19.908Z,7.93
2023-05-21T22:52:06.712Z,9.13
2023-05-21T22:54:54.881Z,6.97
2023-05-21T22:57:41.270Z,7.97
2023-05-21T23:00:28.173Z,10.57
2023-05-21T23:03:14.845Z,15.27
2023-05-21T23:06:01.187Z,10.17
2023-05-21T23:08:47.341Z,10.53
2023-05-21T23:11:35.155Z,14.80
2023-05-21T23:14:21.514Z,11.10
2023-05-21T23:17:07.702Z,7.43
2023-05-21T23:19:53.987Z,7.67
2023-05-21T23:22:40.416Z,8.33
2023-05-21T23:25:26.897Z,8.73
2023-05-21T23:28:14.641Z,11.33
2023-05-21T23:31:01.345Z,10.27
2023-05-21T23:33:48.558Z,7.17
2023-05-21T23:36:34.941Z,7.53
2023-05-21T23:39:21.397Z,14.27
2023-05-21T23:42:07.990Z,9.13
2023-05-21T23:44:56.169Z,8.77
2023-05-21T23:47:42.964Z,10.40
2023-05-21T23:50:29.493Z,12.00
2023-05-21T23:53:16.125Z,11.43
2023-05-21T23:56:02.681Z,10.37
2023-05-21T23:58:48.953Z,5.80
